sensor_id;sensor_type;location;lat;lon;timestamp;pressure;altitude;pressure_sealevel;temperature;humidity
56992;BME280;42885;49.754;18.636;2024-02-26T00:00:37;97278.02;;;9.17;85.18
56992;BME280;42885;49.754;18.636;2024-02-26T00:03:29;97281.77;;;9.26;85.37
56992;BME280;42885;49.754;18.636;2024-02-26T00:06:19;97273.70;;;9.29;85.36
56992;BME280;42885;49.754;18.636;2024-02-26T00:09:09;97270.13;;;9.25;84.84
56992;BME280;42885;49.754;18.636;2024-02-26T00:11:58;97264.19;;;9.47;85.15
56992;BME280;42885;49.754;18.636;2024-02-26T00:14:47;97269.02;;;9.64;83.31
56992;BME280;42885;49.754;18.636;2024-02-26T00:17:38;97275.07;;;9.59;81.98
56992;BME280;42885;49.754;18.636;2024-02-26T00:20:26;97268.33;;;9.68;81.35
56992;BME280;42885;49.754;18.636;2024-02-26T00:23:16;97271.41;;;9.98;81.21
56992;BME280;42885;49.754;18.636;2024-02-26T00:26:05;97265.09;;;10.36;78.92
56992;BME280;42885;49.754;18.636;2024-02-26T00:28:54;97272.87;;;10.49;75.36
56992;BME280;42885;49.754;18.636;2024-02-26T00:31:43;97274.19;;;10.55;75.36
56992;BME280;42885;49.754;18.636;2024-02-26T00:34:32;97273.37;;;10.54;74.54
56992;BME280;42885;49.754;18.636;2024-02-26T00:37:22;97267.05;;;10.51;75.15
56992;BME280;42885;49.754;18.636;2024-02-26T00:40:11;97266.83;;;10.54;74.98
56992;BME280;42885;49.754;18.636;2024-02-26T00:43:01;97266.69;;;10.62;73.76
56992;BME280;42885;49.754;18.636;2024-02-26T00:45:50;97268.95;;;10.66;73.49
56992;BME280;42885;49.754;18.636;2024-02-26T00:48:40;97270.86;;;10.98;71.91
56992;BME280;42885;49.754;18.636;2024-02-26T00:51:30;97269.45;;;10.94;71.52
56992;BME280;42885;49.754;18.636;2024-02-26T00:54:19;97273.13;;;10.97;70.69
56992;BME280;42885;49.754;18.636;2024-02-26T00:57:09;97269.08;;;10.76;71.30
56992;BME280;42885;49.754;18.636;2024-02-26T00:59:58;97274.70;;;10.30;73.90
56992;BME280;42885;49.754;18.636;2024-02-26T01:02:48;97271.84;;;10.22;75.32
56992;BME280;42885;49.754;18.636;2024-02-26T01:05:37;97276.12;;;10.23;75.56
56992;BME280;42885;49.754;18.636;2024-02-26T01:08:26;97278.73;;;10.23;75.94
56992;BME280;42885;49.754;18.636;2024-02-26T01:11:15;97270.38;;;10.12;76.44
56992;BME280;42885;49.754;18.636;2024-02-26T01:14:04;97274.28;;;10.06;76.18
56992;BME280;42885;49.754;18.636;2024-02-26T01:16:54;97274.28;;;10.06;76.18
56992;BME280;42885;49.754;18.636;2024-02-26T01:19:43;97266.16;;;9.86;76.80
56992;BME280;42885;49.754;18.636;2024-02-26T01:22:32;97270.14;;;9.73;78.51
56992;BME280;42885;49.754;18.636;2024-02-26T01:25:22;97265.72;;;9.68;79.77
56992;BME280;42885;49.754;18.636;2024-02-26T01:28:11;97265.95;;;9.65;80.15
56992;BME280;42885;49.754;18.636;2024-02-26T01:31:00;97262.75;;;9.67;80.34
56992;BME280;42885;49.754;18.636;2024-02-26T01:33:49;97259.25;;;9.55;81.79
56992;BME280;42885;49.754;18.636;2024-02-26T01:36:39;97261.27;;;9.57;81.97
56992;BME280;42885;49.754;18.636;2024-02-26T01:39:29;97252.13;;;9.82;81.17
56992;BME280;42885;49.754;18.636;2024-02-26T01:42:19;97252.64;;;9.93;80.56
56992;BME280;42885;49.754;18.636;2024-02-26T01:45:12;97247.36;;;9.81;80.28
56992;BME280;42885;49.754;18.636;2024-02-26T01:48:02;97246.71;;;9.96;79.89
56992;BME280;42885;49.754;18.636;2024-02-26T01:50:51;97243.77;;;10.07;79.31
56992;BME280;42885;49.754;18.636;2024-02-26T01:53:41;97241.25;;;9.99;80.03
56992;BME280;42885;49.754;18.636;2024-02-26T01:56:31;97234.73;;;10.16;78.72
56992;BME280;42885;49.754;18.636;2024-02-26T01:59:20;97235.83;;;10.19;78.53
56992;BME280;42885;49.754;18.636;2024-02-26T02:02:12;97232.11;;;10.11;78.81
56992;BME280;42885;49.754;18.636;2024-02-26T02:05:01;97236.88;;;10.11;79.23
56992;BME280;42885;49.754;18.636;2024-02-26T02:07:50;97226.36;;;9.88;81.09
56992;BME280;42885;49.754;18.636;2024-02-26T02:10:42;97226.36;;;9.88;81.09
56992;BME280;42885;49.754;18.636;2024-02-26T02:13:31;97239.42;;;9.88;81.29
56992;BME280;42885;49.754;18.636;2024-02-26T02:16:21;97244.10;;;9.96;80.96
56992;BME280;42885;49.754;18.636;2024-02-26T02:19:10;97245.88;;;10.01;80.43
56992;BME280;42885;49.754;18.636;2024-02-26T02:22:00;97238.53;;;10.01;80.33
56992;BME280;42885;49.754;18.636;2024-02-26T02:24:51;97235.67;;;9.68;82.43
56992;BME280;42885;49.754;18.636;2024-02-26T02:27:42;97238.62;;;9.94;82.27
56992;BME280;42885;49.754;18.636;2024-02-26T02:30:32;97236.27;;;10.02;81.35
56992;BME280;42885;49.754;18.636;2024-02-26T02:33:26;97241.16;;;10.12;80.22
56992;BME280;42885;49.754;18.636;2024-02-26T02:36:15;97233.31;;;10.12;79.92
56992;BME280;42885;49.754;18.636;2024-02-26T02:39:04;97237.94;;;10.03;80.13
56992;BME280;42885;49.754;18.636;2024-02-26T02:41:53;97245.42;;;10.08;80.29
56992;BME280;42885;49.754;18.636;2024-02-26T02:44:42;97245.53;;;10.06;79.78
56992;BME280;42885;49.754;18.636;2024-02-26T02:47:40;97248.24;;;9.99;80.28
56992;BME280;42885;49.754;18.636;2024-02-26T02:50:25;97243.05;;;10.04;80.00
56992;BME280;42885;49.754;18.636;2024-02-26T02:53:14;97240.75;;;10.00;80.32
56992;BME280;42885;49.754;18.636;2024-02-26T02:56:05;97244.66;;;9.94;80.35
56992;BME280;42885;49.754;18.636;2024-02-26T02:58:53;97239.42;;;9.88;81.05
56992;BME280;42885;49.754;18.636;2024-02-26T03:01:42;97240.55;;;10.03;80.69
56992;BME280;42885;49.754;18.636;2024-02-26T03:04:33;97246.94;;;9.99;80.60
56992;BME280;42885;49.754;18.636;2024-02-26T03:07:22;97242.67;;;10.03;80.11
56992;BME280;42885;49.754;18.636;2024-02-26T03:10:11;97244.31;;;9.93;80.80
56992;BME280;42885;49.754;18.636;2024-02-26T03:13:00;97230.80;;;9.99;80.69
56992;BME280;42885;49.754;18.636;2024-02-26T03:15:49;97232.81;;;10.01;80.26
56992;BME280;42885;49.754;18.636;2024-02-26T03:18:41;97230.56;;;10.08;79.82
56992;BME280;42885;49.754;18.636;2024-02-26T03:21:29;97227.69;;;10.00;79.06
56992;BME280;42885;49.754;18.636;2024-02-26T03:24:19;97219.83;;;9.88;80.02
56992;BME280;42885;49.754;18.636;2024-02-26T03:27:07;97219.75;;;10.07;79.04
56992;BME280;42885;49.754;18.636;2024-02-26T03:29:56;97218.22;;;10.04;78.04
56992;BME280;42885;49.754;18.636;2024-02-26T03:32:46;97213.91;;;9.98;78.47
56992;BME280;42885;49.754;18.636;2024-02-26T03:35:35;97203.20;;;9.95;78.50
56992;BME280;42885;49.754;18.636;2024-02-26T03:38:25;97207.16;;;10.01;78.05
56992;BME280;42885;49.754;18.636;2024-02-26T03:41:14;97199.79;;;10.12;77.02
56992;BME280;42885;49.754;18.636;2024-02-26T03:44:03;97202.73;;;9.90;78.02
56992;BME280;42885;49.754;18.636;2024-02-26T03:46:53;97198.61;;;10.04;77.23
56992;BME280;42885;49.754;18.636;2024-02-26T03:49:42;97192.98;;;9.86;78.28
56992;BME280;42885;49.754;18.636;2024-02-26T03:52:32;97193.31;;;9.76;78.91
56992;BME280;42885;49.754;18.636;2024-02-26T03:55:22;97185.84;;;9.77;78.73
56992;BME280;42885;49.754;18.636;2024-02-26T03:58:13;97186.80;;;9.82;77.50
56992;BME280;42885;49.754;18.636;2024-02-26T04:01:03;97178.50;;;9.88;77.25
56992;BME280;42885;49.754;18.636;2024-02-26T04:03:53;97172.69;;;10.01;76.12
56992;BME280;42885;49.754;18.636;2024-02-26T04:06:47;97179.20;;;9.84;76.35
56992;BME280;42885;49.754;18.636;2024-02-26T04:09:35;97171.37;;;9.84;76.84
56992;BME280;42885;49.754;18.636;2024-02-26T04:12:25;97169.61;;;9.96;75.65
56992;BME280;42885;49.754;18.636;2024-02-26T04:15:14;97168.17;;;10.03;74.87
56992;BME280;42885;49.754;18.636;2024-02-26T04:18:03;97163.68;;;10.05;75.03
56992;BME280;42885;49.754;18.636;2024-02-26T04:20:52;97158.56;;;10.10;74.71
56992;BME280;42885;49.754;18.636;2024-02-26T04:23:42;97169.40;;;10.28;73.17
56992;BME280;42885;49.754;18.636;2024-02-26T04:26:32;97156.57;;;10.30;72.55
56992;BME280;42885;49.754;18.636;2024-02-26T04:29:21;97166.78;;;10.33;71.96
56992;BME280;42885;49.754;18.636;2024-02-26T04:32:10;97152.39;;;10.33;71.41
56992;BME280;42885;49.754;18.636;2024-02-26T04:34:59;97155.23;;;10.25;71.32
56992;BME280;42885;49.754;18.636;2024-02-26T04:37:49;97154.99;;;10.16;72.12
56992;BME280;42885;49.754;18.636;2024-02-26T04:40:38;97160.61;;;10.17;72.19
56992;BME280;42885;49.754;18.636;2024-02-26T04:43:27;97161.77;;;10.13;72.54
56992;BME280;42885;49.754;18.636;2024-02-26T04:46:16;97164.88;;;10.30;71.54
56992;BME280;42885;49.754;18.636;2024-02-26T04:49:04;97164.91;;;10.53;69.71
56992;BME280;42885;49.754;18.636;2024-02-26T04:51:53;97163.09;;;10.87;67.43
56992;BME280;42885;49.754;18.636;2024-02-26T04:54:42;97164.63;;;10.84;66.49
56992;BME280;42885;49.754;18.636;2024-02-26T04:57:32;97163.11;;;10.70;66.61
56992;BME280;42885;49.754;18.636;2024-02-26T05:00:21;97166.43;;;10.72;66.34
56992;BME280;42885;49.754;18.636;2024-02-26T05:03:10;97169.42;;;10.62;66.30
56992;BME280;42885;49.754;18.636;2024-02-26T05:06:01;97160.14;;;10.69;66.35
56992;BME280;42885;49.754;18.636;2024-02-26T05:08:50;97150.30;;;10.44;66.71
56992;BME280;42885;49.754;18.636;2024-02-26T05:11:39;97153.95;;;10.36;67.58
56992;BME280;42885;49.754;18.636;2024-02-26T05:14:28;97158.47;;;10.40;66.96
56992;BME280;42885;49.754;18.636;2024-02-26T05:17:18;97157.16;;;10.34;67.17
56992;BME280;42885;49.754;18.636;2024-02-26T05:20:08;97163.31;;;10.33;66.96
56992;BME280;42885;49.754;18.636;2024-02-26T05:22:58;97167.98;;;10.29;66.85
56992;BME280;42885;49.754;18.636;2024-02-26T05:25:48;97168.25;;;10.43;66.10
56992;BME280;42885;49.754;18.636;2024-02-26T05:28:37;97165.02;;;10.34;66.01
56992;BME280;42885;49.754;18.636;2024-02-26T05:31:27;97165.48;;;10.22;66.32
56992;BME280;42885;49.754;18.636;2024-02-26T05:34:16;97169.97;;;10.20;66.54
56992;BME280;42885;49.754;18.636;2024-02-26T05:37:05;97162.62;;;10.25;66.20
56992;BME280;42885;49.754;18.636;2024-02-26T05:39:55;97158.82;;;10.41;65.35
56992;BME280;42885;49.754;18.636;2024-02-26T05:42:45;97166.94;;;10.43;64.94
56992;BME280;42885;49.754;18.636;2024-02-26T05:45:35;97168.35;;;10.48;64.47
56992;BME280;42885;49.754;18.636;2024-02-26T05:48:24;97161.71;;;10.43;64.37
56992;BME280;42885;49.754;18.636;2024-02-26T05:51:13;97165.73;;;10.53;64.08
56992;BME280;42885;49.754;18.636;2024-02-26T05:54:01;97172.41;;;10.52;63.69
56992;BME280;42885;49.754;18.636;2024-02-26T05:56:51;97180.00;;;10.60;63.51
56992;BME280;42885;49.754;18.636;2024-02-26T05:59:40;97170.95;;;10.53;63.52
56992;BME280;42885;49.754;18.636;2024-02-26T06:02:31;97172.03;;;10.68;63.67
56992;BME280;42885;49.754;18.636;2024-02-26T06:05:20;97168.31;;;10.82;63.10
56992;BME280;42885;49.754;18.636;2024-02-26T06:08:10;97173.92;;;10.71;63.04
56992;BME280;42885;49.754;18.636;2024-02-26T06:10:59;97178.81;;;10.70;63.19
56992;BME280;42885;49.754;18.636;2024-02-26T06:13:49;97180.00;;;10.72;63.18
56992;BME280;42885;49.754;18.636;2024-02-26T06:16:40;97179.52;;;10.84;63.15
56992;BME280;42885;49.754;18.636;2024-02-26T06:19:29;97180.11;;;10.87;62.59
56992;BME280;42885;49.754;18.636;2024-02-26T06:22:18;97190.94;;;10.71;63.60
56992;BME280;42885;49.754;18.636;2024-02-26T06:25:08;97190.57;;;10.76;63.59
56992;BME280;42885;49.754;18.636;2024-02-26T06:27:57;97195.70;;;10.78;63.78
56992;BME280;42885;49.754;18.636;2024-02-26T06:30:46;97203.44;;;10.79;63.85
56992;BME280;42885;49.754;18.636;2024-02-26T06:33:36;97206.49;;;10.90;63.63
56992;BME280;42885;49.754;18.636;2024-02-26T06:36:26;97209.02;;;10.80;63.82
56992;BME280;42885;49.754;18.636;2024-02-26T06:39:14;97213.61;;;10.99;63.29
56992;BME280;42885;49.754;18.636;2024-02-26T06:42:03;97212.28;;;11.17;62.32
56992;BME280;42885;49.754;18.636;2024-02-26T06:44:52;97208.74;;;11.06;62.70
56992;BME280;42885;49.754;18.636;2024-02-26T06:47:41;97215.61;;;11.19;62.32
56992;BME280;42885;49.754;18.636;2024-02-26T06:50:31;97219.28;;;11.27;62.12
56992;BME280;42885;49.754;18.636;2024-02-26T06:53:20;97209.27;;;11.27;62.24
56992;BME280;42885;49.754;18.636;2024-02-26T06:56:08;97211.38;;;11.39;61.88
56992;BME280;42885;49.754;18.636;2024-02-26T06:58:57;97205.55;;;11.47;62.05
56992;BME280;42885;49.754;18.636;2024-02-26T07:01:46;97208.97;;;11.47;61.57
56992;BME280;42885;49.754;18.636;2024-02-26T07:04:36;97212.79;;;11.49;61.78
56992;BME280;42885;49.754;18.636;2024-02-26T07:07:26;97203.22;;;11.59;61.89
56992;BME280;42885;49.754;18.636;2024-02-26T07:10:15;97194.89;;;11.60;62.34
56992;BME280;42885;49.754;18.636;2024-02-26T07:13:05;97200.68;;;11.69;62.08
56992;BME280;42885;49.754;18.636;2024-02-26T07:15:54;97199.99;;;11.88;61.93
56992;BME280;42885;49.754;18.636;2024-02-26T07:18:43;97205.77;;;12.03;61.43
56992;BME280;42885;49.754;18.636;2024-02-26T07:21:33;97200.67;;;12.17;60.92
56992;BME280;42885;49.754;18.636;2024-02-26T07:24:22;97198.37;;;12.39;60.14
56992;BME280;42885;49.754;18.636;2024-02-26T07:27:11;97194.98;;;12.33;60.31
56992;BME280;42885;49.754;18.636;2024-02-26T07:30:00;97190.66;;;12.53;59.88
56992;BME280;42885;49.754;18.636;2024-02-26T07:32:49;97190.89;;;12.35;60.22
56992;BME280;42885;49.754;18.636;2024-02-26T07:35:38;97188.04;;;12.32;61.40
56992;BME280;42885;49.754;18.636;2024-02-26T07:38:27;97188.31;;;12.29;61.80
56992;BME280;42885;49.754;18.636;2024-02-26T07:41:16;97188.89;;;12.48;61.30
56992;BME280;42885;49.754;18.636;2024-02-26T07:44:06;97192.95;;;12.62;60.79
56992;BME280;42885;49.754;18.636;2024-02-26T07:46:55;97198.20;;;12.47;61.59
56992;BME280;42885;49.754;18.636;2024-02-26T07:49:45;97198.72;;;12.56;61.56
56992;BME280;42885;49.754;18.636;2024-02-26T07:52:33;97202.03;;;12.74;61.05
56992;BME280;42885;49.754;18.636;2024-02-26T07:55:23;97208.25;;;12.57;61.98
56992;BME280;42885;49.754;18.636;2024-02-26T07:58:12;97199.11;;;12.67;62.34
56992;BME280;42885;49.754;18.636;2024-02-26T08:01:01;97206.24;;;12.55;62.68
56992;BME280;42885;49.754;18.636;2024-02-26T08:03:51;97206.94;;;12.57;62.94
56992;BME280;42885;49.754;18.636;2024-02-26T08:06:39;97203.95;;;12.62;63.26
56992;BME280;42885;49.754;18.636;2024-02-26T08:09:28;97201.96;;;12.54;63.86
56992;BME280;42885;49.754;18.636;2024-02-26T08:12:17;97203.09;;;12.46;64.53
56992;BME280;42885;49.754;18.636;2024-02-26T08:15:07;97205.20;;;12.52;64.74
56992;BME280;42885;49.754;18.636;2024-02-26T08:17:57;97211.09;;;12.75;64.29
56992;BME280;42885;49.754;18.636;2024-02-26T08:20:46;97208.47;;;12.75;64.08
56992;BME280;42885;49.754;18.636;2024-02-26T08:23:37;97207.27;;;12.89;64.02
56992;BME280;42885;49.754;18.636;2024-02-26T08:26:27;97206.27;;;13.06;63.73
56992;BME280;42885;49.754;18.636;2024-02-26T08:29:17;97205.42;;;12.96;64.39
56992;BME280;42885;49.754;18.636;2024-02-26T08:32:06;97207.58;;;13.06;64.34
56992;BME280;42885;49.754;18.636;2024-02-26T08:34:56;97210.17;;;13.21;64.01
56992;BME280;42885;49.754;18.636;2024-02-26T08:37:46;97203.82;;;13.79;62.75
56992;BME280;42885;49.754;18.636;2024-02-26T08:40:37;97204.45;;;14.21;61.60
56992;BME280;42885;49.754;18.636;2024-02-26T08:43:27;97204.73;;;14.55;59.78
56992;BME280;42885;49.754;18.636;2024-02-26T08:46:16;97200.68;;;14.47;60.16
56992;BME280;42885;49.754;18.636;2024-02-26T08:49:05;97201.23;;;14.89;59.16
56992;BME280;42885;49.754;18.636;2024-02-26T08:51:54;97205.79;;;14.82;58.85
56992;BME280;42885;49.754;18.636;2024-02-26T08:54:44;97207.75;;;14.70;59.11
56992;BME280;42885;49.754;18.636;2024-02-26T08:57:33;97215.65;;;14.70;59.54
56992;BME280;42885;49.754;18.636;2024-02-26T09:00:23;97207.91;;;14.97;59.35
56992;BME280;42885;49.754;18.636;2024-02-26T09:03:12;97198.41;;;15.00;58.35
56992;BME280;42885;49.754;18.636;2024-02-26T09:06:02;97198.16;;;14.79;59.14
56992;BME280;42885;49.754;18.636;2024-02-26T09:08:51;97211.08;;;15.00;59.60
56992;BME280;42885;49.754;18.636;2024-02-26T09:11:40;97203.42;;;14.93;59.34
56992;BME280;42885;49.754;18.636;2024-02-26T09:14:29;97203.41;;;15.39;58.65
56992;BME280;42885;49.754;18.636;2024-02-26T09:17:19;97207.64;;;15.50;58.03
56992;BME280;42885;49.754;18.636;2024-02-26T09:20:08;97209.22;;;15.43;58.14
56992;BME280;42885;49.754;18.636;2024-02-26T09:22:57;97218.70;;;15.50;57.92
56992;BME280;42885;49.754;18.636;2024-02-26T09:25:46;97211.94;;;15.69;57.71
56992;BME280;42885;49.754;18.636;2024-02-26T09:28:36;97215.63;;;15.77;57.72
56992;BME280;42885;49.754;18.636;2024-02-26T09:31:26;97213.16;;;15.57;58.17
56992;BME280;42885;49.754;18.636;2024-02-26T09:34:16;97196.50;;;15.75;58.22
56992;BME280;42885;49.754;18.636;2024-02-26T09:37:06;97209.42;;;15.27;59.37
56992;BME280;42885;49.754;18.636;2024-02-26T09:39:55;97204.89;;;15.56;60.50
56992;BME280;42885;49.754;18.636;2024-02-26T09:42:45;97209.16;;;15.21;60.34
56992;BME280;42885;49.754;18.636;2024-02-26T09:45:35;97213.81;;;15.09;61.12
56992;BME280;42885;49.754;18.636;2024-02-26T09:48:25;97208.75;;;14.97;61.54
56992;BME280;42885;49.754;18.636;2024-02-26T09:51:15;97203.25;;;14.91;62.17
56992;BME280;42885;49.754;18.636;2024-02-26T09:54:09;97212.85;;;14.72;64.08
56992;BME280;42885;49.754;18.636;2024-02-26T09:57:03;97213.52;;;14.84;63.68
56992;BME280;42885;49.754;18.636;2024-02-26T09:59:54;97214.66;;;14.95;63.57
56992;BME280;42885;49.754;18.636;2024-02-26T10:02:46;97213.98;;;15.25;62.68
56992;BME280;42885;49.754;18.636;2024-02-26T10:05:39;97213.90;;;15.49;61.49
56992;BME280;42885;49.754;18.636;2024-02-26T10:08:29;97220.47;;;15.31;62.73
56992;BME280;42885;49.754;18.636;2024-02-26T10:11:18;97213.70;;;15.61;61.51
56992;BME280;42885;49.754;18.636;2024-02-26T10:14:07;97213.38;;;15.82;60.50
56992;BME280;42885;49.754;18.636;2024-02-26T10:16:57;97214.82;;;15.58;61.12
56992;BME280;42885;49.754;18.636;2024-02-26T10:19:49;97207.81;;;15.89;60.58
56992;BME280;42885;49.754;18.636;2024-02-26T10:22:39;97212.97;;;15.91;60.60
56992;BME280;42885;49.754;18.636;2024-02-26T10:25:29;97207.81;;;15.89;60.41
56992;BME280;42885;49.754;18.636;2024-02-26T10:28:20;97217.31;;;15.96;60.53
56992;BME280;42885;49.754;18.636;2024-02-26T10:31:10;97215.26;;;16.08;60.22
56992;BME280;42885;49.754;18.636;2024-02-26T10:34:00;97212.58;;;16.04;60.20
56992;BME280;42885;49.754;18.636;2024-02-26T10:36:50;97228.24;;;15.87;59.78
56992;BME280;42885;49.754;18.636;2024-02-26T10:39:46;97207.64;;;15.87;60.45
56992;BME280;42885;49.754;18.636;2024-02-26T10:42:32;97216.24;;;16.07;60.28
56992;BME280;42885;49.754;18.636;2024-02-26T10:45:22;97200.14;;;16.18;59.43
56992;BME280;42885;49.754;18.636;2024-02-26T10:48:15;97202.63;;;15.98;60.09
56992;BME280;42885;49.754;18.636;2024-02-26T10:51:04;97198.63;;;16.12;60.19
56992;BME280;42885;49.754;18.636;2024-02-26T10:53:55;97195.98;;;17.08;59.24
56992;BME280;42885;49.754;18.636;2024-02-26T10:56:50;97195.25;;;16.58;59.25
56992;BME280;42885;49.754;18.636;2024-02-26T10:59:42;97206.32;;;16.27;59.51
56992;BME280;42885;49.754;18.636;2024-02-26T11:02:34;97193.17;;;16.40;59.00
56992;BME280;42885;49.754;18.636;2024-02-26T11:05:25;97183.31;;;16.89;58.16
56992;BME280;42885;49.754;18.636;2024-02-26T11:08:16;97184.03;;;16.99;57.92
56992;BME280;42885;49.754;18.636;2024-02-26T11:11:06;97184.12;;;16.77;57.82
56992;BME280;42885;49.754;18.636;2024-02-26T11:13:56;97180.05;;;16.91;57.42
56992;BME280;42885;49.754;18.636;2024-02-26T11:16:48;97185.23;;;16.70;57.24
56992;BME280;42885;49.754;18.636;2024-02-26T11:19:38;97187.14;;;16.56;57.71
56992;BME280;42885;49.754;18.636;2024-02-26T11:22:29;97200.56;;;16.67;57.74
56992;BME280;42885;49.754;18.636;2024-02-26T11:25:18;97185.56;;;16.67;57.46
56992;BME280;42885;49.754;18.636;2024-02-26T11:28:13;97188.60;;;16.50;58.11
56992;BME280;42885;49.754;18.636;2024-02-26T11:31:03;97191.01;;;16.35;59.00
56992;BME280;42885;49.754;18.636;2024-02-26T11:33:53;97185.34;;;16.56;58.62
56992;BME280;42885;49.754;18.636;2024-02-26T11:36:43;97182.18;;;16.48;58.32
56992;BME280;42885;49.754;18.636;2024-02-26T11:39:33;97189.06;;;16.41;58.42
56992;BME280;42885;49.754;18.636;2024-02-26T11:42:25;97186.91;;;16.75;57.99
56992;BME280;42885;49.754;18.636;2024-02-26T11:48:30;97186.73;;;17.12;56.37
56992;BME280;42885;49.754;18.636;2024-02-26T11:51:26;97183.25;;;17.07;56.57
56992;BME280;42885;49.754;18.636;2024-02-26T11:54:37;97187.36;;;17.05;55.40
56992;BME280;42885;49.754;18.636;2024-02-26T11:57:29;97191.20;;;17.11;55.90
56992;BME280;42885;49.754;18.636;2024-02-26T12:00:22;97190.70;;;17.08;54.70
56992;BME280;42885;49.754;18.636;2024-02-26T12:03:12;97183.09;;;17.09;55.81
56992;BME280;42885;49.754;18.636;2024-02-26T12:06:02;97181.33;;;16.87;55.60
56992;BME280;42885;49.754;18.636;2024-02-26T12:08:52;97181.11;;;17.11;55.80
56992;BME280;42885;49.754;18.636;2024-02-26T12:11:42;97177.06;;;16.94;56.05
56992;BME280;42885;49.754;18.636;2024-02-26T12:14:34;97183.34;;;16.97;56.16
56992;BME280;42885;49.754;18.636;2024-02-26T12:17:24;97188.41;;;17.17;56.07
56992;BME280;42885;49.754;18.636;2024-02-26T12:20:14;97182.30;;;17.25;55.41
56992;BME280;42885;49.754;18.636;2024-02-26T12:23:04;97180.95;;;17.12;55.44
56992;BME280;42885;49.754;18.636;2024-02-26T12:25:53;97187.28;;;16.89;55.68
56992;BME280;42885;49.754;18.636;2024-02-26T12:28:46;97182.44;;;16.76;56.48
56992;BME280;42885;49.754;18.636;2024-02-26T12:31:36;97190.01;;;17.01;56.73
56992;BME280;42885;49.754;18.636;2024-02-26T12:34:26;97184.36;;;17.00;56.21
56992;BME280;42885;49.754;18.636;2024-02-26T12:37:16;97188.05;;;17.08;55.97
56992;BME280;42885;49.754;18.636;2024-02-26T12:40:08;97186.38;;;17.02;55.65
56992;BME280;42885;49.754;18.636;2024-02-26T12:42:57;97185.71;;;17.04;55.57
56992;BME280;42885;49.754;18.636;2024-02-26T12:45:46;97183.14;;;17.38;54.79
56992;BME280;42885;49.754;18.636;2024-02-26T12:48:36;97176.55;;;17.54;54.02
56992;BME280;42885;49.754;18.636;2024-02-26T12:51:26;97180.52;;;17.71;53.97
56992;BME280;42885;49.754;18.636;2024-02-26T12:54:16;97180.19;;;17.53;54.50
56992;BME280;42885;49.754;18.636;2024-02-26T12:57:07;97188.78;;;17.43;54.96
56992;BME280;42885;49.754;18.636;2024-02-26T12:59:57;97186.70;;;17.03;55.70
56992;BME280;42885;49.754;18.636;2024-02-26T13:02:47;97184.26;;;17.14;55.56
56992;BME280;42885;49.754;18.636;2024-02-26T13:05:36;97176.69;;;17.19;55.04
56992;BME280;42885;49.754;18.636;2024-02-26T13:08:26;97178.80;;;17.12;55.32
56992;BME280;42885;49.754;18.636;2024-02-26T13:11:16;97179.61;;;17.08;55.09
56992;BME280;42885;49.754;18.636;2024-02-26T13:14:06;97181.95;;;17.15;55.07
56992;BME280;42885;49.754;18.636;2024-02-26T13:16:56;97175.47;;;17.01;55.19
56992;BME280;42885;49.754;18.636;2024-02-26T13:19:51;97178.47;;;17.11;54.75
56992;BME280;42885;49.754;18.636;2024-02-26T13:22:41;97169.12;;;17.74;53.65
56992;BME280;42885;49.754;18.636;2024-02-26T13:25:30;97178.20;;;17.55;53.92
56992;BME280;42885;49.754;18.636;2024-02-26T13:28:20;97178.20;;;17.43;54.65
56992;BME280;42885;49.754;18.636;2024-02-26T13:31:11;97183.96;;;17.34;54.72
56992;BME280;42885;49.754;18.636;2024-02-26T13:34:01;97175.88;;;17.31;54.51
56992;BME280;42885;49.754;18.636;2024-02-26T13:36:50;97182.45;;;17.15;54.69
56992;BME280;42885;49.754;18.636;2024-02-26T13:39:39;97175.51;;;17.22;55.16
56992;BME280;42885;49.754;18.636;2024-02-26T13:42:31;97175.20;;;17.25;55.08
56992;BME280;42885;49.754;18.636;2024-02-26T13:45:21;97170.73;;;17.22;54.63
56992;BME280;42885;49.754;18.636;2024-02-26T13:48:12;97177.84;;;17.29;55.19
56992;BME280;42885;49.754;18.636;2024-02-26T13:51:02;97177.98;;;17.11;55.20
56992;BME280;42885;49.754;18.636;2024-02-26T13:53:51;97183.11;;;17.21;54.75
56992;BME280;42885;49.754;18.636;2024-02-26T13:56:40;97188.33;;;17.00;55.67
56992;BME280;42885;49.754;18.636;2024-02-26T13:59:30;97184.72;;;17.01;55.61
56992;BME280;42885;49.754;18.636;2024-02-26T14:02:19;97181.45;;;17.08;56.29
56992;BME280;42885;49.754;18.636;2024-02-26T14:05:08;97187.48;;;17.00;55.79
56992;BME280;42885;49.754;18.636;2024-02-26T14:07:58;97184.19;;;16.98;56.11
56992;BME280;42885;49.754;18.636;2024-02-26T14:10:49;97185.23;;;17.05;55.51
56992;BME280;42885;49.754;18.636;2024-02-26T14:13:39;97180.09;;;17.03;55.77
56992;BME280;42885;49.754;18.636;2024-02-26T14:16:27;97188.98;;;16.98;55.81
56992;BME280;42885;49.754;18.636;2024-02-26T14:19:17;97182.44;;;17.06;55.52
56992;BME280;42885;49.754;18.636;2024-02-26T14:22:06;97182.44;;;17.06;55.83
56992;BME280;42885;49.754;18.636;2024-02-26T14:24:55;97188.80;;;17.00;55.81
56992;BME280;42885;49.754;18.636;2024-02-26T14:27:44;97192.27;;;16.96;56.04
56992;BME280;42885;49.754;18.636;2024-02-26T14:30:33;97186.41;;;17.06;56.11
56992;BME280;42885;49.754;18.636;2024-02-26T14:33:23;97198.54;;;16.91;56.66
56992;BME280;42885;49.754;18.636;2024-02-26T14:36:12;97194.63;;;16.60;56.77
56992;BME280;42885;49.754;18.636;2024-02-26T14:39:02;97196.00;;;16.42;57.26
56992;BME280;42885;49.754;18.636;2024-02-26T14:41:50;97199.88;;;16.30;57.82
56992;BME280;42885;49.754;18.636;2024-02-26T14:44:40;97197.56;;;16.31;57.91
56992;BME280;42885;49.754;18.636;2024-02-26T14:47:30;97201.84;;;16.23;58.17
56992;BME280;42885;49.754;18.636;2024-02-26T14:50:20;97198.92;;;16.35;57.78